Time;durP1;ratioP1;P1;durP2;ratioP2;P2;SDS_P1;SDS_P2;PMS_P1;PMS_P2;Temp;Humidity;BMP_temperature;BMP_pressure;BME280_temperature;BME280_humidity;BME280_pressure;Samples;Min_cycle;Max_cycle;Signal;HPM_P1;HPM_P2
2023/01/21 00:02:10;;;;;;;;;11.00;7.00;;;;;6.59;100.00;101621.28;5099970;27;44790;-83
2023/01/21 00:04:42;;;;;;;;;8.33;8.33;;;;;6.62;100.00;101622.84;5089336;27;44764;-83
2023/01/21 00:07:07;;;;;;;;;9.67;9.33;;;;;6.69;100.00;101642.97;5083502;27;44808;-83
2023/01/21 00:09:33;;;;;;;;;10.00;5.33;;;;;6.64;100.00;101648.91;5069781;28;45475;-83
2023/01/21 00:12:01;;;;;;;;;8.00;6.67;;;;;6.51;100.00;101627.56;5084309;28;44817;-81
2023/01/21 00:14:28;;;;;;;;;7.00;7.00;;;;;6.43;100.00;101632.94;5083514;28;45188;-81
2023/01/21 00:16:53;;;;;;;;;8.00;8.00;;;;;6.36;100.00;101634.56;5074688;27;45536;-80
2023/01/21 00:19:19;;;;;;;;;11.67;7.00;;;;;6.36;100.00;101637.31;5084086;28;45476;-83
2023/01/21 00:21:44;;;;;;;;;8.00;5.67;;;;;6.42;100.00;101660.34;5093029;27;45378;-81
2023/01/21 00:24:10;;;;;;;;;9.00;9.00;;;;;6.40;100.00;101651.47;5084768;28;44814;-82
2023/01/21 00:26:35;;;;;;;;;12.00;9.00;;;;;6.30;100.00;101646.13;5063619;28;45921;-82
2023/01/21 00:29:01;;;;;;;;;6.67;5.67;;;;;6.26;100.00;101637.41;5082606;28;45454;-82
2023/01/21 00:31:26;;;;;;;;;11.33;6.00;;;;;6.28;100.00;101661.78;5081970;28;45489;-82
2023/01/21 00:33:52;;;;;;;;;6.00;6.00;;;;;6.26;100.00;101652.91;5064689;28;45353;-80
2023/01/21 00:36:17;;;;;;;;;6.33;5.33;;;;;6.22;100.00;101651.50;5073407;28;45653;-82
2023/01/21 00:38:46;;;;;;;;;7.67;5.00;;;;;6.22;100.00;101655.09;5083477;28;45399;-81
2023/01/21 00:41:12;;;;;;;;;7.33;5.00;;;;;6.11;100.00;101656.19;5082552;28;45548;-78
2023/01/21 00:43:39;;;;;;;;;10.67;7.33;;;;;6.12;100.00;101666.09;5083576;28;45349;-81
2023/01/21 00:46:05;;;;;;;;;6.00;4.67;;;;;6.19;100.00;101678.03;5083262;28;46309;-78
2023/01/21 00:48:31;;;;;;;;;7.33;6.00;;;;;6.24;100.00;101685.72;5086132;27;47283;-80
2023/01/21 00:51:00;;;;;;;;;4.33;4.33;;;;;6.12;100.00;101655.19;5087048;27;45493;-82
2023/01/21 00:53:30;;;;;;;;;8.00;5.67;;;;;5.97;100.00;101632.22;5078012;27;45713;-82
2023/01/21 00:56:03;;;;;;;;;3.33;2.00;;;;;6.16;100.00;101666.59;5086526;28;44789;-82
2023/01/21 00:58:29;;;;;;;;;5.00;4.00;;;;;6.29;100.00;101682.56;5076972;28;45665;-82
2023/01/21 01:01:17;;;;;;;;;10.33;5.33;;;;;6.32;100.00;101691.25;5075093;28;45637;-82
2023/01/21 01:03:43;;;;;;;;;5.00;5.00;;;;;6.13;100.00;101665.03;5082515;27;45459;-82
2023/01/21 01:06:20;;;;;;;;;6.67;5.00;;;;;6.29;100.00;101693.47;5078057;28;45452;-81
2023/01/21 01:08:48;;;;;;;;;10.33;7.33;;;;;6.21;100.00;101687.94;5072863;28;46741;-81
2023/01/21 01:11:14;;;;;;;;;5.33;5.33;;;;;6.21;100.00;101690.66;5063185;28;44787;-82
2023/01/21 01:13:40;;;;;;;;;9.33;7.67;;;;;6.19;100.00;101694.38;5060886;28;45460;-81
2023/01/21 01:16:06;;;;;;;;;10.67;8.33;;;;;6.17;100.00;101707.31;5044182;28;46171;-81
2023/01/21 01:18:36;;;;;;;;;6.67;6.00;;;;;6.17;100.00;101706.47;5061671;28;48482;-82
2023/01/21 01:21:03;;;;;;;;;7.67;7.67;;;;;6.13;100.00;101705.91;5075358;28;45764;-81
2023/01/21 01:23:29;;;;;;;;;8.33;7.33;;;;;6.09;100.00;101707.25;5067419;28;45481;-79
2023/01/21 01:26:00;;;;;;;;;9.33;5.33;;;;;6.00;100.00;101700.84;5084351;27;45358;-81
2023/01/21 01:28:26;;;;;;;;;6.00;6.00;;;;;6.05;100.00;101719.44;5065648;28;45564;-81
2023/01/21 01:30:52;;;;;;;;;8.00;8.00;;;;;6.03;100.00;101724.19;5081582;28;45350;-80
2023/01/21 01:33:18;;;;;;;;;11.33;10.67;;;;;6.01;100.00;101710.72;5069344;28;45465;-81
2023/01/21 01:35:48;;;;;;;;;9.00;9.00;;;;;5.92;100.00;101716.22;5081671;28;45698;-82
2023/01/21 01:38:16;;;;;;;;;10.00;10.00;;;;;5.93;100.00;101720.66;5063119;28;45620;-81
2023/01/21 01:40:42;;;;;;;;;12.00;10.33;;;;;5.84;100.00;101725.16;5081656;28;45449;-81
2023/01/21 01:43:18;;;;;;;;;13.67;12.33;;;;;5.77;100.00;101729.50;5083524;28;45661;-80
2023/01/21 01:45:46;;;;;;;;;15.67;13.00;;;;;5.52;100.00;101691.09;5082894;28;45441;-82
2023/01/21 01:48:18;;;;;;;;;12.00;12.00;;;;;5.57;100.00;101709.69;5076782;28;45681;-79
2023/01/21 01:50:46;;;;;;;;;12.67;12.00;;;;;5.67;100.00;101756.75;5081794;27;45722;-80
2023/01/21 01:53:13;;;;;;;;;15.00;14.33;;;;;5.64;100.00;101748.91;5063682;28;45871;-80
2023/01/21 01:55:40;;;;;;;;;17.67;13.00;;;;;5.58;100.00;101757.69;5074902;27;45505;-79
2023/01/21 01:58:09;;;;;;;;;14.33;12.00;;;;;5.43;100.00;101752.75;5058857;28;46986;-79
2023/01/21 02:00:35;;;;;;;;;16.67;14.67;;;;;5.39;100.00;101751.34;5065599;28;45727;-80
2023/01/21 02:05:46;;;;;;;;;18.00;12.67;;;;;5.35;100.00;101766.22;5080674;28;45884;-80
2023/01/21 02:08:12;;;;;;;;;11.33;8.67;;;;;5.36;100.00;101778.84;5061165;28;45442;-80
2023/01/21 02:10:38;;;;;;;;;9.00;6.33;;;;;5.13;100.00;101752.00;5079808;28;46017;-82
2023/01/21 02:13:04;;;;;;;;;10.00;8.00;;;;;5.20;100.00;101778.59;5090812;27;45486;-83
2023/01/21 02:15:55;;;;;;;;;16.67;10.33;;;;;5.26;100.00;101799.78;5085736;27;45505;-82
2023/01/21 02:18:23;;;;;;;;;11.00;10.67;;;;;5.22;100.00;101798.34;5080762;28;45346;-81
2023/01/21 02:21:26;;;;;;;;;14.00;13.33;;;;;5.17;100.00;101808.81;5081023;28;44823;-82
2023/01/21 02:24:28;;;;;;;;;18.00;13.00;;;;;5.12;100.00;101825.56;5066219;28;45498;-81
2023/01/21 02:27:28;;;;;;;;;10.67;8.00;;;;;5.05;100.00;101822.56;5076659;28;45641;-80
2023/01/21 02:30:28;;;;;;;;;12.67;11.67;;;;;5.04;100.00;101828.16;5090338;27;47263;-80
2023/01/21 02:33:12;;;;;;;;;14.33;11.33;;;;;4.86;100.00;101804.41;5052936;28;45462;-81
2023/01/21 02:35:40;;;;;;;;;11.00;11.00;;;;;4.94;100.00;101868.97;5078033;28;45746;-80
2023/01/21 02:38:27;;;;;;;;;14.00;11.00;;;;;4.80;100.00;101842.19;5065966;28;45525;-80
2023/01/21 02:41:05;;;;;;;;;11.00;9.00;;;;;4.64;100.00;101857.22;5063304;28;46190;-81
2023/01/21 02:43:41;;;;;;;;;11.00;10.00;;;;;4.56;100.00;101859.78;5046446;28;45158;-79
2023/01/21 02:46:25;;;;;;;;;16.00;16.00;;;;;4.44;100.00;101863.63;5063088;28;45356;-80
2023/01/21 02:49:06;;;;;;;;;14.67;14.67;;;;;4.40;100.00;101904.66;5081657;28;45384;-81
2023/01/21 02:51:31;;;;;;;;;19.33;15.00;;;;;4.14;100.00;101858.13;5077562;28;46287;-81
2023/01/21 02:53:57;;;;;;;;;17.50;17.50;;;;;4.22;100.00;101888.19;5076187;28;45635;-79
2023/01/21 02:56:25;;;;;;;;;21.33;19.00;;;;;4.15;100.00;101897.88;5077318;28;45424;-81
2023/01/21 02:59:00;;;;;;;;;26.33;17.33;;;;;4.08;100.00;101907.56;5062754;28;45380;-80
2023/01/21 03:01:50;;;;;;;;;16.00;14.33;;;;;3.92;100.00;101916.22;5079567;28;45363;-81
2023/01/21 03:04:34;;;;;;;;;19.75;18.50;;;;;3.81;100.00;101905.47;5064931;28;45450;-81
2023/01/21 03:07:32;;;;;;;;;20.00;16.33;;;;;3.76;100.00;101927.56;5078084;28;45891;-82
2023/01/21 03:10:08;;;;;;;;;18.67;15.00;;;;;3.58;100.00;101938.19;5079727;28;45609;-82
2023/01/21 03:12:54;;;;;;;;;22.50;20.25;;;;;3.43;100.00;101925.94;5080473;28;46986;-82
2023/01/21 03:18:26;;;;;;;;;20.00;17.50;;;;;3.41;100.00;101955.06;5063170;28;45407;-82
2023/01/21 03:21:04;;;;;;;;;20.33;14.33;;;;;3.35;100.00;101949.19;5074753;27;45598;-81
2023/01/21 03:23:37;;;;;;;;;17.00;14.67;;;;;3.37;100.00;101943.63;5079390;28;46198;-82
2023/01/21 03:26:06;;;;;;;;;22.50;16.00;;;;;3.32;100.00;101952.16;5073547;28;45464;-81
2023/01/21 03:28:38;;;;;;;;;17.25;13.50;;;;;3.24;100.00;101951.09;5068285;28;45984;-81
2023/01/21 03:31:13;;;;;;;;;20.00;15.50;;;;;3.18;100.00;101950.59;5065918;28;45543;-85
2023/01/21 03:33:44;;;;;;;;;19.75;17.75;;;;;3.14;100.00;101948.28;5070804;27;46695;-81
2023/01/21 03:36:17;;;;;;;;;25.25;23.00;;;;;3.20;100.00;101965.88;5069438;28;45706;-81
2023/01/21 03:38:48;;;;;;;;;24.50;18.75;;;;;3.17;100.00;101959.75;5070768;28;45525;-81
2023/01/21 03:41:23;;;;;;;;;24.00;18.50;;;;;3.07;100.00;101941.66;5037633;28;45942;-81
2023/01/21 03:43:49;;;;;;;;;25.25;19.25;;;;;3.04;100.00;101928.38;5056328;28;46070;-80
2023/01/21 03:46:24;;;;;;;;;23.00;19.00;;;;;3.10;100.00;101942.28;5055520;28;45428;-80
2023/01/21 03:49:02;;;;;;;;;22.00;18.50;;;;;3.22;100.00;101970.19;5052058;28;45475;-81
2023/01/21 03:51:40;;;;;;;;;22.25;19.50;;;;;3.24;100.00;101976.34;5066142;27;45726;-81
2023/01/21 03:54:06;;;;;;;;;24.25;19.75;;;;;3.30;100.00;101983.94;5049239;28;45495;-82
2023/01/21 03:56:32;;;;;;;;;22.50;16.75;;;;;3.28;100.00;101983.22;5072788;27;45815;-83
2023/01/21 03:58:57;;;;;;;;;24.75;23.75;;;;;3.13;100.00;101965.56;5052907;28;45431;-82
2023/01/21 04:01:23;;;;;;;;;19.00;19.00;;;;;3.17;100.00;101976.00;5070567;28;45738;-81
2023/01/21 04:03:49;;;;;;;;;28.25;21.25;;;;;3.24;100.00;102002.59;5064256;27;45867;-81
2023/01/21 04:06:19;;;;;;;;;21.00;20.00;;;;;3.10;100.00;101982.94;5063341;28;45576;-81
2023/01/21 04:08:45;;;;;;;;;19.50;19.50;;;;;3.22;100.00;102012.69;5060647;27;45843;-80
2023/01/21 04:11:11;;;;;;;;;19.75;16.00;;;;;2.91;100.00;101966.50;5061449;27;45796;-80
2023/01/21 04:13:36;;;;;;;;;24.25;23.00;;;;;3.14;100.00;102011.50;5070583;28;45545;-81
2023/01/21 04:16:02;;;;;;;;;32.75;22.00;;;;;3.12;100.00;102012.63;5050608;28;45630;-81
2023/01/21 04:18:28;;;;;;;;;23.00;19.75;;;;;3.13;100.00;102011.63;5072884;28;45369;-81
2023/01/21 04:20:54;;;;;;;;;27.00;19.75;;;;;3.20;100.00;102003.84;5070710;27;45494;-82
2023/01/21 04:23:20;;;;;;;;;27.25;21.50;;;;;2.98;100.00;101967.72;5073420;28;46415;-81
2023/01/21 04:25:50;;;;;;;;;28.25;22.25;;;;;3.08;100.00;101986.75;5079476;27;45659;-80
2023/01/21 04:28:16;;;;;;;;;20.50;18.75;;;;;3.13;100.00;102000.81;5070487;27;45733;-81
2023/01/21 04:30:42;;;;;;;;;22.25;20.00;;;;;3.20;100.00;102012.81;5079888;27;45981;-80
2023/01/21 04:33:08;;;;;;;;;24.75;22.50;;;;;3.13;100.00;102022.47;5080824;27;46652;-80
2023/01/21 04:35:35;;;;;;;;;26.25;24.75;;;;;3.06;100.00;102021.25;5066770;28;45285;-80
2023/01/21 04:38:01;;;;;;;;;23.25;19.25;;;;;3.05;100.00;102028.50;5097103;27;44765;-82
2023/01/21 04:40:27;;;;;;;;;26.00;20.50;;;;;3.01;100.00;102027.06;5095128;27;45533;-82
2023/01/21 04:42:52;;;;;;;;;27.25;23.50;;;;;2.78;100.00;102005.44;5078580;27;46868;-83
2023/01/21 04:45:18;;;;;;;;;27.75;23.00;;;;;2.50;100.00;101955.41;5081780;28;45188;-82
2023/01/21 04:47:45;;;;;;;;;20.50;16.50;;;;;2.51;100.00;101981.47;5082425;28;45995;-82
2023/01/21 04:50:18;;;;;;;;;20.25;19.00;;;;;2.41;100.00;101978.69;5095964;27;44797;-83
2023/01/21 04:52:51;;;;;;;;;24.00;20.25;;;;;2.39;100.00;102001.44;5061407;27;47398;-82
2023/01/21 04:55:19;;;;;;;;;24.00;21.00;;;;;2.29;100.00;102013.03;5080902;28;45907;-84
2023/01/21 04:58:17;;;;;;;;;18.25;16.25;;;;;2.19;100.00;102000.34;5061141;28;45821;-83
2023/01/21 05:00:50;;;;;;;;;23.75;18.00;;;;;2.11;100.00;102017.19;5059327;28;45764;-82
2023/01/21 05:03:16;;;;;;;;;17.00;17.00;;;;;1.89;100.00;101989.13;5074606;27;45671;-81
2023/01/21 05:05:42;;;;;;;;;18.00;17.00;;;;;2.14;100.00;102037.72;5068565;27;45685;-81
2023/01/21 05:08:07;;;;;;;;;26.75;19.00;;;;;2.13;100.00;102039.59;5072245;28;45832;-81
2023/01/21 05:10:39;;;;;;;;;21.75;19.00;;;;;2.11;100.00;102038.81;5076247;28;45451;-81
2023/01/21 05:13:05;;;;;;;;;27.00;20.25;;;;;1.90;100.00;102015.22;5067865;27;46086;-82
2023/01/21 05:15:31;;;;;;;;;18.25;16.75;;;;;1.86;100.00;102021.84;5062075;28;45762;-82
2023/01/21 05:17:57;;;;;;;;;25.25;20.00;;;;;1.97;100.00;102033.66;5050168;28;45834;-81
2023/01/21 05:20:22;;;;;;;;;25.75;23.50;;;;;1.97;100.00;102041.78;5054759;28;45672;-81
2023/01/21 05:22:48;;;;;;;;;30.50;24.25;;;;;1.81;100.00;102021.34;5067938;28;47535;-82
2023/01/21 05:25:15;;;;;;;;;30.25;24.75;;;;;1.90;100.00;102041.38;5077104;28;45411;-80
2023/01/21 05:27:41;;;;;;;;;25.50;19.00;;;;;1.84;100.00;102048.16;5073747;27;45379;-80
2023/01/21 05:30:07;;;;;;;;;26.25;20.50;;;;;1.70;100.00;102030.28;5039899;28;45756;-80
2023/01/21 05:32:35;;;;;;;;;28.00;25.25;;;;;1.70;100.00;102041.09;5066363;28;45824;-82
2023/01/21 05:35:03;;;;;;;;;31.75;26.50;;;;;1.55;100.00;102026.91;5075194;27;45533;-81
2023/01/21 05:37:29;;;;;;;;;32.50;24.00;;;;;1.72;100.00;102059.91;5069856;27;45601;-79
2023/01/21 05:39:55;;;;;;;;;27.25;23.50;;;;;1.68;100.00;102061.16;5044658;28;45641;-81
2023/01/21 05:42:21;;;;;;;;;38.25;24.00;;;;;1.49;100.00;102038.19;5061273;28;46727;-82
2023/01/21 05:44:46;;;;;;;;;30.00;23.50;;;;;1.52;100.00;102042.53;5053226;28;45894;-81
2023/01/21 05:47:12;;;;;;;;;32.50;22.50;;;;;1.59;100.00;102065.41;5034917;28;45999;-79
2023/01/21 05:49:37;;;;;;;;;21.25;20.75;;;;;1.41;100.00;102044.19;5025451;28;46753;-82
2023/01/21 05:52:03;;;;;;;;;27.00;23.00;;;;;1.46;100.00;102065.47;5048856;28;46434;-82
2023/01/21 05:54:30;;;;;;;;;36.75;25.75;;;;;1.46;100.00;102079.00;5035464;28;46087;-83
2023/01/21 05:56:55;;;;;;;;;29.50;23.50;;;;;1.46;100.00;102079.00;5051513;28;45453;-80
2023/01/21 05:59:21;;;;;;;;;31.25;27.50;;;;;1.47;100.00;102082.53;5054252;28;45965;-80
2023/01/21 06:01:48;;;;;;;;;27.25;21.00;;;;;1.41;100.00;102081.19;5036893;28;48077;-81
2023/01/21 06:04:14;;;;;;;;;27.75;24.75;;;;;1.25;100.00;102050.91;5048246;28;45982;-80
2023/01/21 06:06:39;;;;;;;;;26.25;22.25;;;;;1.30;100.00;102064.91;5056161;28;45825;-82
2023/01/21 06:09:05;;;;;;;;;29.00;24.75;;;;;1.38;100.00;102095.78;5049171;28;45741;-83
2023/01/21 06:11:31;;;;;;;;;28.00;25.50;;;;;1.10;100.00;102053.75;5035781;28;45382;-81
2023/01/21 06:13:56;;;;;;;;;33.75;26.75;;;;;1.18;100.00;102064.88;5026427;28;46224;-81
2023/01/21 06:16:28;;;;;;;;;31.50;27.25;;;;;0.99;100.00;102045.63;5046036;28;45740;-82
2023/01/21 06:18:53;;;;;;;;;30.50;26.75;;;;;1.18;100.00;102085.59;5042569;28;45916;-81
2023/01/21 06:21:20;;;;;;;;;24.50;22.50;;;;;1.06;100.00;102071.16;5060856;28;45784;-84
2023/01/21 06:23:46;;;;;;;;;30.25;23.00;;;;;1.09;100.00;102081.75;5038467;28;45692;-81
2023/01/21 06:26:11;;;;;;;;;31.00;24.25;;;;;1.14;100.00;102090.38;5055276;28;45436;-81
2023/01/21 06:28:38;;;;;;;;;27.50;20.00;;;;;1.23;100.00;102114.00;5054795;28;45726;-81
2023/01/21 06:31:03;;;;;;;;;28.50;23.75;;;;;1.24;100.00;102106.75;5035333;28;47087;-82
2023/01/21 06:33:29;;;;;;;;;32.25;30.00;;;;;1.19;100.00;102103.56;5022544;28;45492;-84
2023/01/21 06:35:57;;;;;;;;;29.50;27.00;;;;;1.20;100.00;102114.25;5023474;28;45522;-83
2023/01/21 06:38:29;;;;;;;;;32.25;24.00;;;;;1.20;100.00;102116.94;5059449;27;45410;-81
2023/01/21 06:40:54;;;;;;;;;33.25;26.50;;;;;1.07;100.00;102096.38;5051923;28;46833;-79
2023/01/21 06:43:23;;;;;;;;;34.25;28.50;;;;;1.17;100.00;102113.63;5068052;27;45637;-80
2023/01/21 06:45:49;;;;;;;;;33.75;26.50;;;;;1.28;100.00;102126.34;5063738;28;45731;-78
2023/01/21 06:48:16;;;;;;;;;37.75;29.75;;;;;1.34;100.00;102125.88;5055308;28;45913;-80
2023/01/21 06:50:42;;;;;;;;;31.75;27.75;;;;;1.43;100.00;102130.59;5053203;28;45575;-77
2023/01/21 06:53:07;;;;;;;;;33.50;30.25;;;;;1.52;100.00;102138.00;5069789;28;45853;-78
2023/01/21 06:55:33;;;;;;;;;34.50;30.00;;;;;1.53;100.00;102139.72;5053511;28;45416;-80
2023/01/21 06:57:58;;;;;;;;;34.75;29.25;;;;;1.62;100.00;102145.41;5046451;28;45823;-79
2023/01/21 07:00:24;;;;;;;;;32.75;30.50;;;;;1.52;100.00;102129.03;5071782;27;47172;-77
2023/01/21 07:02:55;;;;;;;;;36.50;28.25;;;;;1.57;100.00;102140.34;5071294;27;45791;-77
2023/01/21 07:05:20;;;;;;;;;41.75;27.25;;;;;1.63;100.00;102137.19;5070569;27;45637;-80
2023/01/21 07:07:46;;;;;;;;;42.50;33.25;;;;;1.77;100.00;102163.19;5051883;28;45952;-79
2023/01/21 07:10:11;;;;;;;;;42.75;32.25;;;;;1.73;100.00;102153.59;5070014;27;46343;-77
2023/01/21 07:12:37;;;;;;;;;35.00;33.50;;;;;1.75;100.00;102166.03;5054190;27;45553;-79
2023/01/21 07:15:03;;;;;;;;;44.00;36.00;;;;;1.61;100.00;102146.41;5073231;27;45543;-80
2023/01/21 07:17:28;;;;;;;;;31.50;24.75;;;;;1.68;100.00;102174.72;5067117;27;46669;-79
2023/01/21 07:19:53;;;;;;;;;38.50;31.00;;;;;1.56;100.00;102173.78;5068342;27;45557;-80
2023/01/21 07:22:20;;;;;;;;;32.50;30.50;;;;;1.51;100.00;102182.25;5051937;28;45531;-78
2023/01/21 07:24:46;;;;;;;;;38.25;30.00;;;;;1.29;100.00;102161.34;5067310;28;46169;-81
2023/01/21 07:27:11;;;;;;;;;47.75;33.25;;;;;1.27;100.00;102170.53;5063397;27;45489;-80
2023/01/21 07:29:37;;;;;;;;;51.50;39.25;;;;;1.27;100.00;102192.16;5068949;27;46419;-79
2023/01/21 07:32:03;;;;;;;;;47.50;35.25;;;;;1.23;100.00;102199.63;5071829;27;45737;-80
2023/01/21 07:34:28;;;;;;;;;41.25;31.25;;;;;1.11;100.00;102201.38;5052448;27;46086;-80
2023/01/21 07:36:54;;;;;;;;;33.25;30.25;;;;;0.98;100.00;102184.34;5050354;28;47035;-80
2023/01/21 07:39:19;;;;;;;;;58.25;43.50;;;;;1.07;100.00;102205.28;5067279;27;45594;-79
2023/01/21 07:41:45;;;;;;;;;55.25;39.25;;;;;1.02;100.00;102205.63;5067504;27;45494;-80
2023/01/21 07:44:11;;;;;;;;;39.50;32.50;;;;;1.08;100.00;102223.22;5067618;27;45490;-79
2023/01/21 07:46:36;;;;;;;;;52.00;38.75;;;;;0.94;100.00;102197.19;5067931;27;45458;-80
2023/01/21 07:49:02;;;;;;;;;46.00;36.00;;;;;0.94;100.00;102205.28;5044326;27;47295;-77
2023/01/21 07:51:27;;;;;;;;;43.75;36.00;;;;;0.90;100.00;102208.31;5069905;27;45525;-81
2023/01/21 07:53:56;;;;;;;;;33.50;28.00;;;;;0.95;100.00;102223.22;5064720;27;46060;-80
2023/01/21 07:56:21;;;;;;;;;52.00;40.25;;;;;0.97;100.00;102218.56;5067135;27;45542;-75
2023/01/21 07:58:47;;;;;;;;;39.50;37.75;;;;;1.20;100.00;102235.84;5061643;28;46156;-79
2023/01/21 08:01:13;;;;;;;;;37.25;33.25;;;;;1.33;100.00;102248.47;5067269;27;45805;-75
2023/01/21 08:03:38;;;;;;;;;38.25;35.75;;;;;1.41;100.00;102240.69;5048915;28;45721;-75
2023/01/21 08:06:05;;;;;;;;;50.25;40.25;;;;;1.51;100.00;102251.66;5069748;27;46486;-75
2023/01/21 08:08:31;;;;;;;;;40.75;30.50;;;;;1.55;100.00;102254.03;5040277;27;48936;-75
2023/01/21 08:10:57;;;;;;;;;39.50;31.25;;;;;1.61;100.00;102265.38;5068157;27;46097;-75
2023/01/21 08:13:23;;;;;;;;;47.75;39.25;;;;;1.59;100.00;102266.34;5069814;27;45415;-74
2023/01/21 08:15:49;;;;;;;;;43.00;37.50;;;;;1.58;100.00;102259.22;5047163;27;46901;-74
2023/01/21 08:18:18;;;;;;;;;41.00;37.00;;;;;1.64;100.00;102265.16;5047078;28;47352;-76
2023/01/21 08:20:44;;;;;;;;;37.00;30.25;;;;;1.63;100.00;102258.88;5066041;28;45858;-74
2023/01/21 08:23:10;;;;;;;;;46.75;37.75;;;;;1.60;100.00;102256.38;5071186;27;45890;-75
2023/01/21 08:25:35;;;;;;;;;46.50;37.75;;;;;1.66;100.00;102258.66;5068444;27;45981;-75
2023/01/21 08:28:00;;;;;;;;;50.00;38.50;;;;;1.81;100.00;102269.31;5072376;27;46412;-72
2023/01/21 08:30:26;;;;;;;;;44.00;38.50;;;;;1.90;100.00;102277.63;5070550;27;45841;-75
2023/01/21 08:32:52;;;;;;;;;53.00;39.75;;;;;1.94;100.00;102295.34;5071092;27;45369;-76
2023/01/21 08:35:17;;;;;;;;;55.75;43.50;;;;;2.01;100.00;102287.63;5081271;27;45799;-76
2023/01/21 08:37:43;;;;;;;;;44.25;38.50;;;;;2.13;100.00;102288.56;5073859;27;45875;-76
2023/01/21 08:40:09;;;;;;;;;38.50;34.50;;;;;2.17;100.00;102281.94;5068169;27;45571;-74
2023/01/21 08:42:35;;;;;;;;;43.50;31.25;;;;;2.27;100.00;102282.09;5061252;27;45470;-74
2023/01/21 08:45:00;;;;;;;;;46.25;35.25;;;;;2.33;100.00;102291.59;5071301;27;45743;-74
2023/01/21 08:47:29;;;;;;;;;39.75;31.75;;;;;2.27;100.00;102288.38;5076014;27;46304;-79
2023/01/21 08:49:54;;;;;;;;;48.75;39.75;;;;;2.35;100.00;102308.59;5071626;27;45569;-73
2023/01/21 08:52:20;;;;;;;;;36.25;29.75;;;;;2.38;100.00;102305.63;5072611;27;45515;-75
2023/01/21 08:54:46;;;;;;;;;40.00;37.00;;;;;2.31;100.00;102288.16;5070452;27;45855;-73
2023/01/21 08:57:11;;;;;;;;;56.00;42.50;;;;;2.46;100.00;102308.66;5064216;27;45813;-75
2023/01/21 08:59:37;;;;;;;;;48.75;34.75;;;;;2.59;100.00;102319.38;5073988;27;45876;-75
2023/01/21 09:02:02;;;;;;;;;37.50;34.00;;;;;2.61;100.00;102306.59;5066425;28;45647;-75
2023/01/21 09:04:27;;;;;;;;;44.75;36.50;;;;;2.68;100.00;102310.56;5066099;27;45883;-75
2023/01/21 09:06:53;;;;;;;;;67.00;47.25;;;;;3.03;100.00;102317.78;5090074;27;46087;-74
2023/01/21 09:09:18;;;;;;;;;47.00;35.00;;;;;3.57;100.00;102309.94;5082726;27;45898;-74
2023/01/21 09:11:44;;;;;;;;;54.50;40.00;;;;;4.01;100.00;102319.88;5072233;27;45565;-76
2023/01/21 09:14:09;;;;;;;;;45.50;38.75;;;;;4.39;100.00;102323.94;5048403;27;45716;-73
2023/01/21 09:16:35;;;;;;;;;50.25;37.50;;;;;4.85;100.00;102313.72;5080340;27;46556;-75
2023/01/21 09:19:01;;;;;;;;;53.00;38.25;;;;;5.27;100.00;102315.56;5071004;27;45574;-74
2023/01/21 09:21:28;;;;;;;;;43.25;37.00;;;;;5.53;100.00;102328.72;5065002;28;45654;-75
2023/01/21 09:23:54;;;;;;;;;34.75;29.00;;;;;5.83;100.00;102315.03;5069627;27;46849;-74
2023/01/21 09:26:21;;;;;;;;;45.25;36.25;;;;;6.10;100.00;102315.44;5068539;28;46671;-75
2023/01/21 09:29:05;;;;;;;;;41.50;31.75;;;;;6.17;100.00;102322.91;5073600;28;45845;-73
2023/01/21 09:31:30;;;;;;;;;51.00;35.75;;;;;6.35;100.00;102330.41;5058377;27;45823;-73
2023/01/21 09:33:58;;;;;;;;;37.25;32.75;;;;;6.52;100.00;102323.38;5068664;27;45828;-75
2023/01/21 09:36:26;;;;;;;;;41.75;30.50;;;;;6.70;100.00;102324.34;5070879;27;46191;-74
2023/01/21 09:38:52;;;;;;;;;43.50;34.50;;;;;6.88;100.00;102316.28;5081529;27;45638;-76
2023/01/21 09:41:21;;;;;;;;;45.25;37.00;;;;;7.04;100.00;102336.69;5074960;27;45529;-74
2023/01/21 09:44:03;;;;;;;;;52.50;39.25;;;;;6.83;100.00;102317.75;5050504;27;45669;-76
2023/01/21 09:46:38;;;;;;;;;40.50;30.50;;;;;6.96;100.00;102351.06;5043615;27;46318;-76
2023/01/21 09:49:08;;;;;;;;;51.50;35.75;;;;;7.13;100.00;102360.34;5069319;27;45828;-75
2023/01/21 09:51:45;;;;;;;;;50.25;36.75;;;;;6.91;100.00;102358.78;5048263;28;45541;-75
2023/01/21 09:54:23;;;;;;;;;41.50;35.75;;;;;6.75;100.00;102356.66;5071226;27;45839;-76
2023/01/21 09:57:17;;;;;;;;;49.25;38.75;;;;;6.86;100.00;102370.13;5052241;27;46847;-75
2023/01/21 10:00:07;;;;;;;;;55.25;42.75;;;;;7.04;100.00;102386.63;5051335;28;45740;-76
2023/01/21 10:02:39;;;;;;;;;51.25;38.25;;;;;6.96;100.00;102381.06;5070355;27;45550;-75
2023/01/21 10:05:19;;;;;;;;;49.50;36.00;;;;;6.98;100.00;102380.91;5033222;28;47252;-75
2023/01/21 10:07:59;;;;;;;;;47.75;36.50;;;;;6.54;100.00;102403.13;5045676;28;47534;-76
2023/01/21 10:10:40;;;;;;;;;42.25;37.25;;;;;6.27;100.00;102431.03;5033789;28;45408;-75
2023/01/21 10:13:28;;;;;;;;;40.25;36.50;;;;;6.26;100.00;102388.47;5065170;27;45805;-75
2023/01/21 10:16:12;;;;;;;;;41.00;30.50;;;;;5.88;100.00;102393.59;5071385;27;46261;-74
2023/01/21 10:18:41;;;;;;;;;46.50;34.50;;;;;5.42;100.00;102409.41;5076563;27;45556;-75
2023/01/21 10:21:22;;;;;;;;;46.50;33.00;;;;;5.36;100.00;102398.19;5074360;27;45777;-76
2023/01/21 10:24:01;;;;;;;;;54.00;40.75;;;;;5.09;100.00;102405.91;5056672;28;45541;-75
2023/01/21 10:26:29;;;;;;;;;52.25;39.25;;;;;4.92;100.00;102437.22;5074653;27;45957;-76
2023/01/21 10:28:55;;;;;;;;;54.00;38.25;;;;;4.49;100.00;102407.38;5069543;27;45796;-76
2023/01/21 10:31:27;;;;;;;;;39.00;34.50;;;;;4.27;100.00;102417.31;5065538;27;45512;-75
2023/01/21 10:33:53;;;;;;;;;47.50;35.75;;;;;4.03;100.00;102420.19;5058558;27;45700;-75
2023/01/21 10:37:12;;;;;;;;;40.50;31.25;;;;;3.81;100.00;102421.91;5084395;27;45813;-76
2023/01/21 10:39:56;;;;;;;;;58.75;42.75;;;;;3.72;100.00;102434.34;5072914;27;46435;-75
2023/01/21 10:42:53;;;;;;;;;46.50;39.25;;;;;3.52;100.00;102430.53;5069601;27;45892;-76
2023/01/21 10:45:46;;;;;;;;;60.50;40.00;;;;;3.53;100.00;102442.22;5071976;27;45514;-74
2023/01/21 10:48:36;;;;;;;;;54.25;42.00;;;;;3.50;100.00;102428.91;5069947;27;45585;-76
2023/01/21 10:51:21;;;;;;;;;60.00;44.25;;;;;3.48;100.00;102422.75;5066259;27;45845;-76
2023/01/21 10:53:59;;;;;;;;;48.00;38.50;;;;;3.66;100.00;102451.13;5050649;27;45795;-76
2023/01/21 10:56:50;;;;;;;;;52.75;39.75;;;;;3.94;100.00;102442.63;5052386;27;45439;-76
2023/01/21 10:59:20;;;;;;;;;53.25;40.25;;;;;4.60;100.00;102429.94;5077569;27;45536;-74
2023/01/21 11:02:10;;;;;;;;;56.50;41.75;;;;;5.06;100.00;102440.63;5081491;28;46009;-76
2023/01/21 11:04:39;;;;;;;;;44.50;38.50;;;;;5.32;100.00;102429.41;5076438;27;45398;-76
2023/01/21 11:07:10;;;;;;;;;46.25;37.75;;;;;5.57;100.00;102429.00;5079234;27;45469;-76
2023/01/21 11:09:43;;;;;;;;;55.75;39.75;;;;;5.88;100.00;102418.09;5081896;27;45558;-77
2023/01/21 11:12:17;;;;;;;;;50.75;39.25;;;;;6.18;100.00;102428.16;5078981;27;47762;-76
2023/01/21 11:14:56;;;;;;;;;45.25;38.25;;;;;5.95;100.00;102422.00;5083123;27;45462;-77
2023/01/21 11:17:34;;;;;;;;;53.75;38.50;;;;;5.93;100.00;102423.16;5092333;27;45402;-78
2023/01/21 11:20:03;;;;;;;;;44.75;35.75;;;;;5.77;100.00;102424.50;5091921;28;45324;-79
2023/01/21 11:22:31;;;;;;;;;33.50;31.50;;;;;5.32;100.00;102403.06;5089900;28;45477;-79
2023/01/21 11:24:58;;;;;;;;;36.75;31.00;;;;;5.25;100.00;102420.91;5090128;28;44853;-80
2023/01/21 11:27:37;;;;;;;;;36.75;31.50;;;;;4.82;100.00;102428.16;5073367;28;44820;-80
2023/01/21 11:30:26;;;;;;;;;47.50;37.25;;;;;4.60;100.00;102439.97;5079043;28;45695;-75
2023/01/21 11:32:52;;;;;;;;;34.75;27.25;;;;;4.39;100.00;102421.72;5081142;28;45659;-75